Time;durP1;ratioP1;P1;durP2;ratioP2;P2;SDS_P1;SDS_P2;PMS_P1;PMS_P2;Temp;Humidity;BMP_temperature;BMP_pressure;BME280_temperature;BME280_humidity;BME280_pressure;Samples;Min_cycle;Max_cycle;Signal;HPM_P1;HPM_P2
2023/01/15 00:01:34;;;;;;;1.17;0.68;;;7.70;99.90;;;;;;4838694;29;20038;-76
2023/01/15 00:04:02;;;;;;;0.20;0.20;;;7.60;99.90;;;;;;4822586;29;20057;-76
2023/01/15 00:06:29;;;;;;;0.65;0.43;;;7.60;99.90;;;;;;4838820;29;20044;-76
2023/01/15 00:08:55;;;;;;;0.50;0.50;;;7.50;99.90;;;;;;4838290;29;20042;-76
2023/01/15 00:11:21;;;;;;;2.30;0.57;;;7.60;99.90;;;;;;4822547;29;20110;-76
2023/01/15 00:13:47;;;;;;;3.38;0.50;;;7.60;99.90;;;;;;4838543;29;20034;-76
2023/01/15 00:16:19;;;;;;;0.43;0.43;;;7.50;99.90;;;;;;4838909;29;20031;-76
2023/01/15 00:18:59;;;;;;;0.65;0.57;;;7.50;99.90;;;;;;4822146;29;20498;-75
2023/01/15 00:21:27;;;;;;;1.30;0.40;;;7.50;99.90;;;;;;4838476;29;20027;-74
2023/01/15 00:29:24;;;;;;;0.50;0.50;;;7.40;99.90;;;;;;4822099;29;20045;-76
2023/01/15 00:31:53;;;;;;;0.90;0.60;;;7.30;99.90;;;;;;4821807;29;20030;-76
2023/01/15 00:34:19;;;;;;;0.60;0.60;;;7.30;99.90;;;;;;4821872;29;20019;-73
2023/01/15 00:36:45;;;;;;;2.55;0.68;;;7.20;99.90;;;;;;4821695;29;20059;-76
2023/01/15 00:39:11;;;;;;;2.05;0.75;;;7.20;99.90;;;;;;4838531;29;20026;-76
2023/01/15 00:41:39;;;;;;;0.28;0.28;;;7.10;99.90;;;;;;4843608;29;20041;-76
2023/01/15 00:44:05;;;;;;;2.30;0.50;;;7.10;99.90;;;;;;4874976;29;20033;-76
2023/01/15 00:46:31;;;;;;;0.80;0.80;;;7.10;99.90;;;;;;4866961;29;20026;-75
2023/01/15 00:48:56;;;;;;;5.68;0.98;;;7.10;99.90;;;;;;4821659;29;20186;-76
2023/01/15 00:51:22;;;;;;;1.40;0.90;;;7.10;99.90;;;;;;4806456;29;20106;-75
2023/01/15 00:53:48;;;;;;;1.90;1.38;;;7.10;99.90;;;;;;4821557;29;20042;-75
2023/01/15 00:56:14;;;;;;;2.22;0.95;;;7.10;99.90;;;;;;4821546;29;20033;-75
2023/01/15 00:58:39;;;;;;;2.03;0.55;;;7.10;99.90;;;;;;4821485;29;20038;-76
2023/01/15 01:01:06;;;;;;;2.03;0.75;;;7.10;99.90;;;;;;4821491;29;20030;-76
2023/01/15 01:03:31;;;;;;;5.60;1.45;;;7.10;99.90;;;;;;4837858;29;20420;-76
2023/01/15 01:06:01;;;;;;;2.00;0.95;;;7.10;99.90;;;;;;4821365;29;20034;-76
2023/01/15 01:08:27;;;;;;;4.28;1.02;;;7.10;99.90;;;;;;4837914;29;20026;-76
2023/01/15 01:11:08;;;;;;;0.47;0.40;;;7.10;99.90;;;;;;4821323;29;20126;-76
2023/01/15 01:13:36;;;;;;;1.15;1.05;;;7.00;99.90;;;;;;4820989;29;20035;-74
2023/01/15 01:16:01;;;;;;;2.58;0.90;;;7.00;99.90;;;;;;4821252;29;20150;-76
2023/01/15 01:18:27;;;;;;;4.88;0.73;;;7.10;99.90;;;;;;4837701;29;20136;-75
2023/01/15 01:20:54;;;;;;;4.60;0.98;;;7.10;99.90;;;;;;4836593;29;20034;-75
2023/01/15 01:23:23;;;;;;;0.50;0.45;;;7.10;99.90;;;;;;4821460;29;20034;-76
2023/01/15 01:25:49;;;;;;;0.93;0.93;;;7.10;99.90;;;;;;4820991;29;20034;-73
2023/01/15 01:28:15;;;;;;;1.75;1.13;;;7.10;99.90;;;;;;4805992;29;20066;-76
2023/01/15 01:30:41;;;;;;;2.85;1.48;;;7.10;99.90;;;;;;4821111;29;20137;-76
2023/01/15 01:33:07;;;;;;;4.38;1.95;;;7.10;99.90;;;;;;4820796;29;20060;-76
2023/01/15 01:35:33;;;;;;;1.65;1.25;;;7.10;99.90;;;;;;4820911;29;20419;-76
2023/01/15 01:37:58;;;;;;;2.17;1.35;;;7.20;99.90;;;;;;4837442;29;20058;-73
2023/01/15 01:40:24;;;;;;;3.50;1.48;;;7.10;99.90;;;;;;4805723;29;20140;-73
2023/01/15 01:42:50;;;;;;;2.38;1.38;;;7.10;99.90;;;;;;4837514;29;20033;-77
2023/01/15 01:45:25;;;;;;;2.28;1.08;;;7.10;99.90;;;;;;4868943;29;20041;-77
2023/01/15 01:47:55;;;;;;;7.50;1.35;;;7.10;99.90;;;;;;4837136;29;20039;-76
2023/01/15 01:50:21;;;;;;;9.90;1.35;;;7.10;99.90;;;;;;4837160;29;20071;-76
2023/01/15 01:52:58;;;;;;;1.45;1.30;;;7.10;99.90;;;;;;4820595;29;20105;-76
2023/01/15 01:55:26;;;;;;;9.57;2.28;;;7.10;99.90;;;;;;4820818;29;20037;-75
2023/01/15 01:57:57;;;;;;;1.10;0.93;;;7.10;99.90;;;;;;4837102;29;20056;-76
2023/01/15 02:00:23;;;;;;;3.00;1.40;;;7.10;99.90;;;;;;4835570;29;20030;-76
2023/01/15 02:02:53;;;;;;;4.05;1.42;;;7.10;99.90;;;;;;4820597;29;20041;-76
2023/01/15 02:05:32;;;;;;;2.97;0.70;;;7.10;99.90;;;;;;4820690;29;20484;-76
2023/01/15 02:07:59;;;;;;;1.90;1.00;;;7.20;99.90;;;;;;4837073;29;20439;-76
2023/01/15 02:10:27;;;;;;;13.80;2.00;;;7.10;99.90;;;;;;4818970;29;20057;-76
2023/01/15 02:13:26;;;;;;;1.25;1.10;;;7.10;99.90;;;;;;4819077;29;20034;-76
2023/01/15 02:16:11;;;;;;;2.83;1.52;;;7.10;99.90;;;;;;4830257;29;20097;-75
2023/01/15 02:19:05;;;;;;;6.45;3.03;;;7.10;99.90;;;;;;4855122;29;20034;-75
2023/01/15 02:21:48;;;;;;;3.63;0.73;;;7.00;99.90;;;;;;4838501;29;20030;-74
2023/01/15 02:24:35;;;;;;;1.58;0.88;;;7.00;99.90;;;;;;4854779;29;20034;-76
2023/01/15 02:27:10;;;;;;;1.73;1.20;;;7.00;99.90;;;;;;4823613;29;20037;-76
2023/01/15 02:29:45;;;;;;;3.33;1.15;;;7.00;99.90;;;;;;4838431;29;20030;-73
2023/01/15 02:32:44;;;;;;;5.90;1.35;;;7.00;99.90;;;;;;4839299;29;20062;-74
2023/01/15 02:35:17;;;;;;;2.15;1.48;;;7.00;99.90;;;;;;4828183;29;20050;-76
2023/01/15 02:37:48;;;;;;;14.32;3.53;;;7.00;99.90;;;;;;4858839;29;20030;-76
2023/01/15 02:40:19;;;;;;;2.83;0.85;;;7.00;99.90;;;;;;4827245;29;20030;-76
2023/01/15 02:42:48;;;;;;;1.95;1.35;;;7.00;99.90;;;;;;4845975;29;20030;-76
2023/01/15 02:45:23;;;;;;;2.97;1.70;;;7.00;99.90;;;;;;4840856;29;20026;-76
2023/01/15 02:47:57;;;;;;;1.88;0.93;;;6.90;99.90;;;;;;4823836;29;20058;-73
2023/01/15 02:50:30;;;;;;;9.20;1.17;;;6.90;99.90;;;;;;4824132;29;20030;-74
2023/01/15 02:53:04;;;;;;;1.52;1.17;;;6.90;99.90;;;;;;4838763;29;20054;-76
2023/01/15 02:55:39;;;;;;;9.98;2.80;;;6.90;99.90;;;;;;4823855;29;20446;-76
2023/01/15 02:58:10;;;;;;;5.18;2.88;;;6.90;99.90;;;;;;4840085;29;20035;-76
2023/01/15 03:00:41;;;;;;;9.15;2.13;;;6.90;99.90;;;;;;4823605;29;20035;-73
2023/01/15 03:03:11;;;;;;;4.22;0.90;;;6.90;99.90;;;;;;4824601;29;20040;-75
2023/01/15 03:05:53;;;;;;;3.20;1.30;;;6.90;99.90;;;;;;4839636;29;20093;-75
2023/01/15 03:08:19;;;;;;;7.28;1.77;;;6.90;99.90;;;;;;4823796;29;20038;-75
2023/01/15 03:10:57;;;;;;;2.15;1.92;;;6.90;99.90;;;;;;4823525;29;20045;-76
2023/01/15 03:13:34;;;;;;;1.92;1.83;;;6.90;99.90;;;;;;4823344;29;20038;-76
2023/01/15 03:18:57;;;;;;;8.98;1.80;;;6.90;99.90;;;;;;4823404;29;20048;-76
2023/01/15 03:21:37;;;;;;;10.65;3.05;;;7.00;99.90;;;;;;4823595;29;20031;-76
2023/01/15 03:24:04;;;;;;;4.95;1.95;;;6.90;99.90;;;;;;4854790;29;20030;-76
2023/01/15 03:26:30;;;;;;;4.13;2.08;;;6.90;99.90;;;;;;4859862;29;20036;-76
2023/01/15 03:28:58;;;;;;;3.70;2.17;;;6.90;99.90;;;;;;4856624;29;20041;-76
2023/01/15 03:31:24;;;;;;;5.00;1.77;;;6.80;99.90;;;;;;4823020;29;20038;-77
2023/01/15 03:33:50;;;;;;;3.85;1.85;;;6.80;99.90;;;;;;4849968;29;20030;-76
2023/01/15 03:36:19;;;;;;;4.38;2.50;;;6.70;99.90;;;;;;4841239;29;20050;-75
2023/01/15 03:38:49;;;;;;;6.38;2.97;;;6.70;99.90;;;;;;4841067;29;20045;-75
2023/01/15 03:42:04;;;;;;;4.38;1.73;;;6.70;99.90;;;;;;4835935;29;20038;-75
2023/01/15 03:44:36;;;;;;;6.82;2.40;;;6.80;99.90;;;;;;4812206;29;20057;-75
2023/01/15 03:47:14;;;;;;;2.20;0.98;;;6.80;99.90;;;;;;4822954;29;20102;-73
2023/01/15 03:50:16;;;;;;;2.97;2.03;;;6.90;99.90;;;;;;4822802;29;20038;-76
2023/01/15 03:52:51;;;;;;;7.20;1.90;;;6.80;99.90;;;;;;4764981;30;20048;-75
2023/01/15 03:55:24;;;;;;;1.88;1.65;;;6.90;99.90;;;;;;4813368;29;20042;-76
2023/01/15 03:58:06;;;;;;;14.38;2.95;;;6.90;99.90;;;;;;4822582;29;20030;-76
2023/01/15 04:00:41;;;;;;;11.13;2.80;;;6.90;99.90;;;;;;4837770;29;20094;-76
2023/01/15 04:03:12;;;;;;;3.00;1.70;;;6.90;99.90;;;;;;4838767;29;20038;-75
2023/01/15 04:05:39;;;;;;;5.78;2.28;;;7.00;99.90;;;;;;4822788;29;20038;-75
2023/01/15 04:08:07;;;;;;;7.32;2.65;;;6.90;99.90;;;;;;4822488;29;20023;-73
2023/01/15 04:10:34;;;;;;;11.65;2.97;;;7.00;99.90;;;;;;4807770;29;20038;-76
2023/01/15 04:13:02;;;;;;;9.50;2.05;;;7.00;99.90;;;;;;4807673;29;20051;-76
2023/01/15 04:15:27;;;;;;;3.33;2.72;;;7.00;99.90;;;;;;4822419;29;20034;-76
2023/01/15 04:17:53;;;;;;;6.78;2.80;;;7.00;99.90;;;;;;4822292;29;20045;-76
2023/01/15 04:20:21;;;;;;;8.32;3.15;;;7.00;99.90;;;;;;4837369;29;20038;-76
2023/01/15 04:22:48;;;;;;;4.32;1.50;;;7.10;99.90;;;;;;4822339;29;20040;-76
2023/01/15 04:25:13;;;;;;;3.92;1.63;;;7.10;99.90;;;;;;4818258;29;20105;-75
2023/01/15 04:27:39;;;;;;;6.05;1.75;;;7.10;99.90;;;;;;4822547;29;20045;-76
2023/01/15 04:30:06;;;;;;;12.68;2.45;;;7.10;99.90;;;;;;4838349;29;20031;-74
2023/01/15 04:32:32;;;;;;;5.20;2.10;;;7.00;99.90;;;;;;4838321;29;20113;-76
2023/01/15 04:34:58;;;;;;;9.35;2.80;;;7.00;99.90;;;;;;4822202;29;20077;-76
2023/01/15 04:37:24;;;;;;;1.92;1.75;;;7.00;99.90;;;;;;4838274;29;20197;-76
2023/01/15 04:39:49;;;;;;;8.38;2.08;;;7.00;99.90;;;;;;4838138;29;20064;-76
2023/01/15 04:45:00;;;;;;;3.42;1.65;;;7.10;99.90;;;;;;4852009;29;20041;-76
2023/01/15 04:47:29;;;;;;;10.45;2.33;;;7.00;99.90;;;;;;4874878;29;20044;-76
2023/01/15 04:49:55;;;;;;;4.45;1.83;;;7.00;99.90;;;;;;4874830;29;20108;-76
2023/01/15 04:52:21;;;;;;;9.10;1.25;;;7.00;99.90;;;;;;4827770;29;20068;-76
2023/01/15 04:54:47;;;;;;;4.00;2.22;;;7.00;99.90;;;;;;4857938;29;20085;-76
2023/01/15 04:57:12;;;;;;;6.50;1.88;;;7.00;99.90;;;;;;4857945;29;20033;-76
2023/01/15 04:59:38;;;;;;;1.67;1.30;;;7.00;99.90;;;;;;4838253;29;20037;-75
2023/01/15 05:02:04;;;;;;;2.97;2.17;;;7.00;99.90;;;;;;4837901;29;20517;-76
2023/01/15 05:04:30;;;;;;;3.03;1.95;;;7.00;99.90;;;;;;4821329;29;20097;-74
2023/01/15 05:06:56;;;;;;;7.50;1.45;;;7.00;99.90;;;;;;4821613;29;20037;-76
2023/01/15 05:09:22;;;;;;;2.58;1.67;;;7.10;99.90;;;;;;4821294;29;20445;-76
2023/01/15 05:11:48;;;;;;;7.70;1.67;;;7.00;99.90;;;;;;4806198;29;20034;-76
2023/01/15 05:14:14;;;;;;;10.00;3.65;;;7.00;99.90;;;;;;4830539;29;20057;-77
2023/01/15 05:16:40;;;;;;;7.95;2.55;;;7.00;99.90;;;;;;4855866;29;20018;-75
2023/01/15 05:19:06;;;;;;;10.52;2.55;;;7.00;99.90;;;;;;4824076;29;20034;-76
2023/01/15 05:21:36;;;;;;;2.67;1.77;;;7.10;99.90;;;;;;4855972;29;20069;-76
2023/01/15 05:24:05;;;;;;;6.32;2.00;;;7.10;99.90;;;;;;4839906;29;20038;-76
2023/01/15 05:26:32;;;;;;;2.15;1.30;;;7.10;99.90;;;;;;4855763;29;20484;-76
2023/01/15 05:28:59;;;;;;;14.80;2.22;;;7.10;99.90;;;;;;4829562;29;20045;-76
2023/01/15 05:31:25;;;;;;;8.38;2.25;;;7.10;99.90;;;;;;4837745;29;20046;-76
2023/01/15 05:33:52;;;;;;;2.72;1.80;;;7.10;99.90;;;;;;4837445;29;20053;-76
2023/01/15 05:36:24;;;;;;;2.85;1.92;;;7.10;99.90;;;;;;4831267;29;20060;-76
2023/01/15 05:38:51;;;;;;;5.43;2.13;;;7.10;99.90;;;;;;4855630;29;20026;-76
2023/01/15 05:44:06;;;;;;;5.55;3.17;;;7.10;99.90;;;;;;4859518;29;20033;-75
2023/01/15 05:46:33;;;;;;;4.68;2.25;;;7.10;99.90;;;;;;4852820;29;20038;-73
2023/01/15 05:49:05;;;;;;;4.63;2.50;;;7.10;99.90;;;;;;4852592;29;20030;-76
2023/01/15 05:51:32;;;;;;;3.50;2.97;;;7.00;99.90;;;;;;4854888;29;20500;-74
2023/01/15 05:53:58;;;;;;;5.55;2.20;;;7.00;99.90;;;;;;4823184;29;20034;-72
2023/01/15 05:56:24;;;;;;;7.25;2.50;;;7.00;99.90;;;;;;4838750;29;20030;-76
2023/01/15 05:58:50;;;;;;;4.05;1.98;;;7.00;99.90;;;;;;4854811;29;20037;-76
2023/01/15 06:01:16;;;;;;;7.03;2.03;;;7.00;99.90;;;;;;4833399;29;20064;-73
2023/01/15 06:03:42;;;;;;;4.22;1.90;;;7.00;99.90;;;;;;4847729;29;20067;-76
2023/01/15 06:06:12;;;;;;;12.48;3.40;;;7.00;99.90;;;;;;4821190;29;20041;-76
2023/01/15 06:08:38;;;;;;;5.28;1.40;;;7.00;99.90;;;;;;4848699;29;20437;-74
2023/01/15 06:11:05;;;;;;;6.35;1.52;;;6.90;99.90;;;;;;4854634;29;20033;-76
2023/01/15 06:13:32;;;;;;;7.20;2.15;;;6.90;99.90;;;;;;4854930;29;20034;-76
2023/01/15 06:15:59;;;;;;;6.22;3.05;;;6.80;99.90;;;;;;4838568;29;20097;-75
2023/01/15 06:18:25;;;;;;;3.88;1.33;;;6.80;99.90;;;;;;4821358;29;20034;-75
2023/01/15 06:20:51;;;;;;;2.30;1.70;;;6.80;99.90;;;;;;4846730;29;20059;-76
2023/01/15 06:23:17;;;;;;;7.82;3.83;;;6.80;99.90;;;;;;4862984;29;20053;-75
2023/01/15 06:25:43;;;;;;;1.73;1.63;;;6.80;99.90;;;;;;4836140;29;20042;-76
2023/01/15 06:28:10;;;;;;;1.52;1.33;;;6.80;99.90;;;;;;4847623;29;20046;-75
2023/01/15 06:30:38;;;;;;;3.65;1.27;;;6.80;99.90;;;;;;4850905;29;20455;-76
2023/01/15 06:33:06;;;;;;;2.92;1.92;;;6.80;99.90;;;;;;4858770;29;20022;-75
2023/01/15 06:35:32;;;;;;;4.53;1.83;;;6.80;99.90;;;;;;4848103;29;20061;-75
2023/01/15 06:37:58;;;;;;;3.72;1.73;;;6.80;99.90;;;;;;4870538;29;20026;-76
2023/01/15 06:40:25;;;;;;;8.52;2.42;;;6.70;99.90;;;;;;4856680;29;20018;-76
2023/01/15 06:48:24;;;;;;;7.30;2.53;;;6.70;99.90;;;;;;4855464;29;20097;-75
2023/01/15 06:50:50;;;;;;;2.17;1.77;;;6.60;99.90;;;;;;4854553;29;20038;-75
2023/01/15 06:53:16;;;;;;;5.10;1.92;;;6.60;99.90;;;;;;4819961;29;20072;-75
2023/01/15 06:55:42;;;;;;;3.47;1.83;;;6.60;99.90;;;;;;4804874;29;20022;-75
2023/01/15 06:58:08;;;;;;;7.57;2.70;;;6.70;99.90;;;;;;4836222;29;20031;-75
2023/01/15 07:00:34;;;;;;;4.22;2.50;;;6.70;99.90;;;;;;4837362;29;20038;-75
2023/01/15 07:03:00;;;;;;;9.65;2.47;;;6.70;99.90;;;;;;4834939;29;20090;-75
2023/01/15 07:05:26;;;;;;;7.25;1.40;;;6.70;99.90;;;;;;4836192;29;20074;-75
2023/01/15 07:07:52;;;;;;;10.63;2.25;;;6.70;99.90;;;;;;4836362;29;20038;-75
2023/01/15 07:10:18;;;;;;;5.38;3.08;;;6.70;99.90;;;;;;4819705;29;20026;-75
2023/01/15 07:12:44;;;;;;;3.60;1.95;;;6.70;99.90;;;;;;4836055;29;20038;-75
2023/01/15 07:15:10;;;;;;;4.18;2.25;;;6.70;99.90;;;;;;4804600;29;20124;-75
2023/01/15 07:17:36;;;;;;;3.22;1.98;;;6.70;99.90;;;;;;4819849;29;20034;-75
2023/01/15 07:20:02;;;;;;;5.88;3.25;;;6.70;99.90;;;;;;4823018;29;20041;-75
2023/01/15 07:22:29;;;;;;;2.90;1.67;;;6.60;99.90;;;;;;4823118;29;20030;-75
2023/01/15 07:24:55;;;;;;;12.05;3.67;;;6.50;99.90;;;;;;4838068;29;20038;-75
2023/01/15 07:27:22;;;;;;;7.43;2.63;;;6.50;99.90;;;;;;4851660;29;20089;-75
2023/01/15 07:29:49;;;;;;;10.68;3.70;;;6.40;99.90;;;;;;4831530;29;20041;-75
2023/01/15 07:32:15;;;;;;;8.70;5.00;;;6.30;99.90;;;;;;4857660;29;20050;-75
2023/01/15 07:34:41;;;;;;;6.25;3.30;;;6.30;99.90;;;;;;4857564;29;20049;-75
2023/01/15 07:37:07;;;;;;;6.88;2.55;;;6.20;99.90;;;;;;4857359;29;20030;-76
2023/01/15 07:39:33;;;;;;;4.20;1.55;;;6.30;99.90;;;;;;4857391;29;20028;-75
2023/01/15 07:50:16;;;;;;;7.38;4.70;;;6.30;99.90;;;;;;4822777;29;20038;-75
2023/01/15 07:52:43;;;;;;;7.10;5.70;;;6.20;99.90;;;;;;4838730;29;20027;-75
2023/01/15 07:55:11;;;;;;;2.95;1.40;;;6.10;99.90;;;;;;4822653;29;20038;-75
2023/01/15 07:57:37;;;;;;;3.85;1.40;;;6.00;99.90;;;;;;4838610;29;20058;-75
2023/01/15 08:00:05;;;;;;;2.03;1.65;;;6.00;99.90;;;;;;4807480;29;20023;-75
2023/01/15 08:02:38;;;;;;;2.20;2.00;;;5.90;99.90;;;;;;4839681;29;20072;-75
2023/01/15 08:05:04;;;;;;;22.23;11.05;;;5.80;99.90;;;;;;4838519;29;20041;-75
2023/01/15 08:07:30;;;;;;;6.90;4.55;;;5.80;99.90;;;;;;4837602;29;20038;-75
2023/01/15 08:09:56;;;;;;;5.63;4.90;;;5.70;99.90;;;;;;4822274;29;20034;-75
2023/01/15 08:15:14;;;;;;;17.77;12.20;;;5.60;99.90;;;;;;4838546;29;20034;-75
2023/01/15 08:17:43;;;;;;;5.22;3.97;;;5.60;99.90;;;;;;4838437;29;20043;-75
2023/01/15 08:20:12;;;;;;;6.75;2.67;;;5.50;99.90;;;;;;4838429;29;20109;-75
2023/01/15 08:22:39;;;;;;;1.00;0.98;;;5.50;99.90;;;;;;4838352;29;20109;-75
2023/01/15 08:25:07;;;;;;;7.45;3.50;;;5.50;99.90;;;;;;4840022;29;20045;-75
2023/01/15 08:27:33;;;;;;;5.13;2.55;;;5.50;99.90;;;;;;4856802;29;20026;-75
2023/01/15 08:29:58;;;;;;;8.93;2.40;;;5.40;99.90;;;;;;4854473;29;20439;-75
2023/01/15 08:32:25;;;;;;;14.88;7.95;;;5.40;99.90;;;;;;4840216;29;20049;-75
2023/01/15 08:34:51;;;;;;;9.23;8.13;;;5.40;99.90;;;;;;4839745;29;20042;-75
2023/01/15 08:37:17;;;;;;;4.05;3.58;;;5.40;99.90;;;;;;4856563;29;20076;-75
2023/01/15 08:39:42;;;;;;;8.45;3.50;;;5.50;99.90;;;;;;4855826;29;20030;-75
2023/01/15 08:42:08;;;;;;;5.00;2.45;;;6.20;99.90;;;;;;4829317;29;20037;-75
2023/01/15 08:44:34;;;;;;;2.50;1.85;;;7.90;99.90;;;;;;4808170;29;20117;-76
2023/01/15 08:47:00;;;;;;;3.85;2.47;;;9.40;99.90;;;;;;4813799;29;20034;-75
2023/01/15 08:49:26;;;;;;;7.72;1.10;;;10.20;99.90;;;;;;4847503;29;20033;-75
2023/01/15 08:51:52;;;;;;;6.75;3.40;;;10.50;99.90;;;;;;4847806;29;20018;-75
2023/01/15 08:54:19;;;;;;;3.63;0.90;;;10.80;99.90;;;;;;4847428;29;20058;-75
2023/01/15 08:56:46;;;;;;;2.13;1.35;;;11.30;99.90;;;;;;4853187;29;20033;-74
2023/01/15 08:59:12;;;;;;;6.93;3.33;;;11.40;99.90;;;;;;4845141;29;20022;-74
2023/01/15 09:01:39;;;;;;;3.10;1.48;;;11.80;99.90;;;;;;4845079;29;20037;-75
2023/01/15 09:04:05;;;;;;;3.30;2.85;;;11.90;99.90;;;;;;4847386;29;20106;-74
2023/01/15 09:06:32;;;;;;;3.30;2.72;;;11.50;99.90;;;;;;4853659;29;20488;-74
2023/01/15 09:09:01;;;;;;;17.65;9.73;;;11.80;99.90;;;;;;4822884;29;20044;-73
2023/01/15 09:11:27;;;;;;;9.00;4.45;;;11.90;99.90;;;;;;4847169;29;20041;-73
2023/01/15 09:13:53;;;;;;;8.93;5.25;;;12.30;99.90;;;;;;4849317;29;20057;-74
2023/01/15 09:16:19;;;;;;;8.18;6.45;;;12.50;99.90;;;;;;4844286;29;20026;-73
2023/01/15 09:18:45;;;;;;;2.65;2.42;;;11.80;99.90;;;;;;4842211;29;20035;-76
2023/01/15 09:21:11;;;;;;;7.15;4.45;;;11.70;99.90;;;;;;4844345;29;20026;-73
2023/01/15 09:23:37;;;;;;;5.03;2.40;;;10.90;99.90;;;;;;4815415;29;20052;-73
2023/01/15 09:26:05;;;;;;;11.15;4.95;;;9.80;99.90;;;;;;4823926;29;20081;-76
2023/01/15 09:28:33;;;;;;;11.48;4.32;;;8.90;99.90;;;;;;4844246;29;20094;-76
2023/01/15 09:30:59;;;;;;;12.25;5.47;;;9.20;99.90;;;;;;4839383;29;20038;-76
2023/01/15 09:33:25;;;;;;;11.40;7.03;;;9.10;99.90;;;;;;4842438;29;20069;-75
2023/01/15 09:35:51;;;;;;;46.97;28.75;;;10.00;99.90;;;;;;4863140;29;20065;-73
2023/01/15 09:38:19;;;;;;;35.50;21.40;;;11.30;99.90;;;;;;4838692;29;20132;-73
2023/01/15 09:40:56;;;;;;;12.30;5.70;;;11.80;99.90;;;;;;4838203;29;20029;-74
2023/01/15 09:43:37;;;;;;;26.90;14.65;;;10.40;99.90;;;;;;4853889;29;20034;-73
2023/01/15 09:46:12;;;;;;;39.50;21.35;;;10.50;99.90;;;;;;4847437;29;20098;-75
2023/01/15 09:49:08;;;;;;;6.80;5.68;;;12.00;99.90;;;;;;4853916;29;20069;-75
2023/01/15 09:52:02;;;;;;;4.22;3.28;;;11.20;99.90;;;;;;4850332;29;20052;-75
2023/01/15 09:55:09;;;;;;;10.50;3.33;;;9.40;99.90;;;;;;4854712;29;20034;-75
2023/01/15 09:57:35;;;;;;;25.75;15.48;;;8.70;99.90;;;;;;4758016;30;20040;-74
2023/01/15 10:00:04;;;;;;;7.90;4.10;;;10.40;99.90;;;;;;4831268;29;20038;-76
2023/01/15 10:02:55;;;;;;;5.03;2.95;;;11.80;99.90;;;;;;4848770;29;20049;-73
2023/01/15 10:05:29;;;;;;;6.47;1.92;;;12.60;99.90;;;;;;4834998;29;20034;-75
2023/01/15 10:08:05;;;;;;;2.55;2.35;;;12.80;99.90;;;;;;4825975;29;20034;-73
2023/01/15 10:10:49;;;;;;;8.48;3.10;;;12.00;99.90;;;;;;4836937;29;20081;-73
2023/01/15 10:13:26;;;;;;;3.95;2.28;;;11.10;99.90;;;;;;4854396;29;20044;-73
2023/01/15 10:15:52;;;;;;;4.50;2.45;;;10.30;99.90;;;;;;4852438;29;20146;-73
2023/01/15 10:18:23;;;;;;;6.53;1.73;;;9.80;99.90;;;;;;4853378;29;20063;-75
2023/01/15 10:21:10;;;;;;;6.93;1.48;;;10.40;99.90;;;;;;4827612;29;20026;-73
2023/01/15 10:23:37;;;;;;;5.18;1.38;;;11.10;99.90;;;;;;4852171;29;20126;-76
2023/01/15 10:26:25;;;;;;;2.97;2.40;;;9.90;99.90;;;;;;4831468;29;20045;-73
2023/01/15 10:29:00;;;;;;;11.07;2.58;;;10.40;99.90;;;;;;4832102;29;20030;-73
2023/01/15 10:31:48;;;;;;;2.97;0.95;;;10.60;99.90;;;;;;4849740;29;20040;-73
2023/01/15 10:34:23;;;;;;;4.75;2.90;;;10.70;99.90;;;;;;4838481;29;20041;-73
2023/01/15 10:37:02;;;;;;;11.63;3.63;;;9.90;99.90;;;;;;4855006;29;20109;-76
2023/01/15 10:39:48;;;;;;;6.65;1.55;;;9.60;99.90;;;;;;4838112;29;20041;-75
2023/01/15 10:42:37;;;;;;;4.82;1.63;;;10.00;99.90;;;;;;4854742;29;20034;-75
2023/01/15 10:45:05;;;;;;;4.47;1.48;;;11.30;99.90;;;;;;4854882;29;20037;-75
2023/01/15 10:47:35;;;;;;;1.35;1.25;;;10.80;99.90;;;;;;4838191;29;20029;-75
2023/01/15 10:50:12;;;;;;;5.53;1.27;;;10.50;99.90;;;;;;4819981;29;20465;-75
2023/01/15 10:52:40;;;;;;;5.93;1.70;;;9.90;99.90;;;;;;4840518;29;20184;-75
2023/01/15 10:55:19;;;;;;;10.65;2.63;;;9.50;99.90;;;;;;4839418;29;20035;-76
2023/01/15 10:58:10;;;;;;;1.17;1.15;;;8.90;99.90;;;;;;4840354;29;20051;-76
2023/01/15 11:00:38;;;;;;;8.90;1.35;;;8.50;99.90;;;;;;4851765;29;20034;-76
2023/01/15 11:03:19;;;;;;;13.65;1.52;;;8.30;99.90;;;;;;4846645;29;20034;-76
2023/01/15 11:05:45;;;;;;;6.32;1.27;;;8.20;99.90;;;;;;4845261;29;20044;-76
2023/01/15 11:08:31;;;;;;;1.25;1.15;;;8.20;99.90;;;;;;4855115;29;20129;-76
2023/01/15 11:11:04;;;;;;;2.53;1.65;;;8.30;99.90;;;;;;4841257;29;20544;-75
2023/01/15 11:19:36;;;;;;;2.55;2.10;;;8.90;99.90;;;;;;4858089;29;20430;-75
2023/01/15 11:22:13;;;;;;;2.55;1.38;;;9.60;99.90;;;;;;4857747;29;20054;-75
2023/01/15 11:24:57;;;;;;;6.88;3.88;;;10.10;99.90;;;;;;4856743;29;20034;-76
2023/01/15 11:27:26;;;;;;;11.93;6.18;;;10.20;99.90;;;;;;4822868;29;20034;-75
2023/01/15 11:29:54;;;;;;;4.80;3.30;;;10.30;99.90;;;;;;4845194;29;20543;-75
2023/01/15 11:32:31;;;;;;;11.65;8.38;;;10.30;99.90;;;;;;4839026;29;20041;-75
2023/01/15 11:35:00;;;;;;;9.20;5.03;;;10.30;99.90;;;;;;4855086;29;20136;-75
2023/01/15 11:37:27;;;;;;;12.73;8.70;;;10.00;99.90;;;;;;4840768;29;20049;-76
2023/01/15 11:40:04;;;;;;;9.50;2.83;;;9.50;99.90;;;;;;4857130;29;20022;-76
2023/01/15 11:51:14;;;;;;;10.35;2.85;;;9.50;99.90;;;;;;4827201;29;20038;-75
2023/01/15 11:53:47;;;;;;;5.55;3.67;;;9.20;99.90;;;;;;4835175;29;20507;-75
2023/01/15 11:56:23;;;;;;;7.45;3.25;;;9.20;99.90;;;;;;4837375;29;20048;-76
2023/01/15 11:58:59;;;;;;;2.00;1.90;;;9.20;99.90;;;;;;4851211;29;20049;-75
2023/01/15 12:01:32;;;;;;;7.68;3.35;;;9.20;99.90;;;;;;4839105;29;20065;-75
2023/01/15 12:04:00;;;;;;;3.28;2.88;;;9.10;99.90;;;;;;4853731;29;20030;-75
2023/01/15 12:06:28;;;;;;;1.95;1.40;;;8.90;99.90;;;;;;4828008;29;20049;-75
2023/01/15 12:09:09;;;;;;;11.95;3.05;;;9.00;99.90;;;;;;4856484;29;20095;-75
2023/01/15 12:12:10;;;;;;;5.88;4.60;;;8.90;99.90;;;;;;4822242;29;20064;-74
2023/01/15 12:15:05;;;;;;;2.78;2.22;;;8.70;99.90;;;;;;4834637;29;20057;-75
2023/01/15 12:17:53;;;;;;;3.03;1.63;;;8.80;99.90;;;;;;4833660;29;20041;-76
2023/01/15 12:20:30;;;;;;;3.78;1.08;;;8.30;99.90;;;;;;4856076;29;20171;-75
2023/01/15 12:23:09;;;;;;;2.60;0.95;;;8.40;99.90;;;;;;4844675;29;20033;-75
2023/01/15 12:25:49;;;;;;;3.47;1.30;;;8.40;99.90;;;;;;4851300;29;20097;-75
2023/01/15 12:28:23;;;;;;;2.85;0.98;;;8.40;99.90;;;;;;4856662;29;20037;-76
2023/01/15 12:31:05;;;;;;;3.83;1.40;;;8.30;99.90;;;;;;4856570;29;20040;-75
2023/01/15 12:33:44;;;;;;;3.90;2.05;;;8.20;99.90;;;;;;4825368;29;20042;-75
2023/01/15 12:36:35;;;;;;;0.60;0.60;;;8.20;99.90;;;;;;4809534;29;20473;-75
2023/01/15 12:39:06;;;;;;;2.83;1.63;;;8.00;99.90;;;;;;4831650;29;20051;-75
2023/01/15 12:47:56;;;;;;;0.98;0.85;;;8.00;99.90;;;;;;4810999;29;20031;-74
2023/01/15 12:50:25;;;;;;;0.93;0.93;;;8.10;99.90;;;;;;4797900;29;20055;-77
2023/01/15 12:53:03;;;;;;;1.42;1.30;;;8.10;99.90;;;;;;4803290;29;20050;-76
2023/01/15 12:55:33;;;;;;;1.70;1.25;;;8.10;99.90;;;;;;4818938;29;20034;-76
2023/01/15 12:58:02;;;;;;;1.85;1.23;;;8.10;99.90;;;;;;4826878;29;20031;-75
2023/01/15 13:00:38;;;;;;;1.58;1.10;;;8.10;99.90;;;;;;4802789;29;20060;-76
2023/01/15 13:03:29;;;;;;;1.85;1.20;;;8.10;99.90;;;;;;4814036;29;20037;-75
2023/01/15 13:06:01;;;;;;;3.97;1.00;;;8.10;99.90;;;;;;4837839;29;20042;-74
2023/01/15 13:08:39;;;;;;;0.90;0.68;;;8.00;99.90;;;;;;4821470;29;20033;-74
2023/01/15 13:11:06;;;;;;;5.18;1.80;;;8.00;99.90;;;;;;4820895;29;20042;-75
2023/01/15 13:13:38;;;;;;;1.30;0.90;;;8.00;99.90;;;;;;4800732;29;20054;-75
2023/01/15 13:16:23;;;;;;;5.30;1.58;;;7.90;99.90;;;;;;4826620;29;20086;-75
2023/01/15 13:18:53;;;;;;;1.70;1.00;;;7.90;99.90;;;;;;4837410;29;20027;-75
2023/01/15 13:21:22;;;;;;;3.95;2.08;;;7.90;99.90;;;;;;4836491;29;20087;-75
2023/01/15 13:24:10;;;;;;;2.42;2.22;;;7.90;99.90;;;;;;4837631;29;20033;-75
2023/01/15 13:26:57;;;;;;;2.03;1.38;;;7.90;99.90;;;;;;4837716;29;20034;-75
2023/01/15 13:29:35;;;;;;;4.13;2.15;;;7.80;99.90;;;;;;4837560;29;20038;-75
2023/01/15 13:32:38;;;;;;;5.35;0.93;;;7.80;99.90;;;;;;4836031;29;20109;-75
2023/01/15 13:35:17;;;;;;;1.15;1.05;;;7.80;99.90;;;;;;4842419;29;20050;-75
2023/01/15 13:37:48;;;;;;;2.28;1.23;;;7.70;99.90;;;;;;4855569;29;20030;-75
2023/01/15 13:40:49;;;;;;;2.78;2.55;;;7.70;99.90;;;;;;4855459;29;20066;-75
2023/01/15 13:43:54;;;;;;;2.42;1.30;;;7.70;99.90;;;;;;4853905;29;20062;-75
2023/01/15 13:46:20;;;;;;;7.85;1.58;;;7.80;99.90;;;;;;4780924;30;20123;-75
2023/01/15 13:48:50;;;;;;;7.18;1.33;;;7.80;99.90;;;;;;4842351;29;20046;-75
2023/01/15 13:51:27;;;;;;;1.65;0.95;;;7.90;99.90;;;;;;4855515;29;20441;-75
2023/01/15 13:53:53;;;;;;;5.25;2.13;;;7.90;99.90;;;;;;4838826;29;20033;-75
2023/01/15 13:56:28;;;;;;;3.75;1.45;;;7.80;99.90;;;;;;4821171;29;20112;-75
2023/01/15 13:58:59;;;;;;;2.10;1.40;;;7.70;99.90;;;;;;4836881;29;20027;-75
2023/01/15 14:01:37;;;;;;;6.35;0.95;;;7.70;99.90;;;;;;4837122;29;20087;-75
2023/01/15 14:04:14;;;;;;;7.03;2.67;;;7.70;99.90;;;;;;4805358;29;20030;-75
2023/01/15 14:06:49;;;;;;;1.92;1.70;;;7.70;99.90;;;;;;4820435;29;20031;-75
2023/01/15 14:09:21;;;;;;;3.20;1.27;;;7.60;99.90;;;;;;4836767;29;20039;-75